Darstellungsparameter: Aktuell verwendete Einstellungen:
Skalierung der Graphiken ... ?
xyx+y,   Skalierungsfaktor:      Skalierung: Modus: x, Faktor: 1
Darstellungszeitraum ... ?
Vom - - bis: - -   Zeitraum: 11.09.2010 - 12.09.2010
Min/Max/Avg-Anzeige ... ?
Zeige MMA aktuell
Zeige MMA Monat
Zeige MMA alles
Zeige --A aktuell
Zeige --A Monat
Zeige --A alles
Keine MMA-Anzeige
MMA:
Average (ber die Originaldaten)
MMA-Basis: 11.09.2010 - 12.09.2010
Quicknavigation für Darstellung... ?
Tage:      1T, 2T, 3T, 5T -1T -2T -3T -5T +1T +2T +3T +5T
Wochen: 1W, 2W, 3W -1W -2W -3W +1W +2W +3W
Monate: 1M, 3M, 6M -1M -3M -6M +1M +3M +6M
Jahre:    1J, 3J, 5J, 10J -1J -3J -5J -10J +1J +3J +5J +10J
Nutze für die Darstellung ... ?
Originaldaten oder Mittelwerte auf ...
Stundenbasis Tagesbasis Wochenbasis
Monatsbasis Jahresbasis      Datenbasis: Original-Daten
Darstellen als:
Statistik (Auto) Statistik J:M      Darstellung:
Zur Graphik,    zurück zur Übersicht aller Sensoren.
 
Tabellarische Datenbersicht: ?
 
Sensor: Nr:Datum:Temp:Abs-Feuchte:Windchill:Wind:
Aussen-T/F 1 11-09-2010 00:09:03 15.2 C 10.9 g/m*3 15.2 C 0 km/h
2 11-09-2010 00:21:03 15.2 C 10.9 g/m*3 15.2 C 0 km/h
3 11-09-2010 00:33:03 15.1 C 10.84 g/m*3 15.1 C 0 km/h
4 11-09-2010 00:45:03 15.1 C 10.84 g/m*3 15.1 C 0 km/h
5 11-09-2010 00:57:03 15.1 C 10.84 g/m*3 15.1 C 0 km/h
6 11-09-2010 01:09:03 15.1 C 10.84 g/m*3 15.1 C 0 km/h
7 11-09-2010 01:21:03 15 C 10.77 g/m*3 15 C 0 km/h
8 11-09-2010 01:33:03 15 C 10.77 g/m*3 15 C 0 km/h
9 11-09-2010 01:45:04 15 C 10.77 g/m*3 15 C 0 km/h
10 11-09-2010 01:57:04 14.9 C 10.83 g/m*3 14.9 C 0 km/h
11 11-09-2010 02:09:04 14.9 C 10.83 g/m*3 14.9 C 0 km/h
12 11-09-2010 02:21:04 14.8 C 10.77 g/m*3 14.8 C 0 km/h
13 11-09-2010 02:33:04 14.7 C 10.58 g/m*3 14.7 C 0 km/h
14 11-09-2010 02:45:04 14.7 C 10.7 g/m*3 14.7 C 0 km/h
15 11-09-2010 02:57:04 14.6 C 10.76 g/m*3 14.6 C 0 km/h
16 11-09-2010 03:09:04 14.4 C 10.63 g/m*3 14.4 C 0 km/h
17 11-09-2010 03:21:04 14.3 C 10.57 g/m*3 14.3 C 0 km/h
18 11-09-2010 03:33:04 14.1 C 10.44 g/m*3 14.1 C 0 km/h
19 11-09-2010 03:45:04 14 C 10.37 g/m*3 14 C 0 km/h
20 11-09-2010 03:57:04 13.6 C 10.12 g/m*3 13.6 C 0 km/h
21 11-09-2010 04:09:04 13.5 C 10.06 g/m*3 13.5 C 0 km/h
22 11-09-2010 04:21:04 13.3 C 9.94 g/m*3 13.3 C 0 km/h
23 11-09-2010 04:33:04 13.1 C 9.81 g/m*3 13.1 C 0 km/h
24 11-09-2010 04:45:04 13 C 9.75 g/m*3 13 C 0 km/h
25 11-09-2010 04:57:04 12.8 C 9.74 g/m*3 12.8 C 0 km/h
Sensor: Nr:Datum:Temp:Abs-Feuchte:Windchill:Wind:
Aussen-T/F 26 11-09-2010 05:09:04 12.6 C 9.62 g/m*3 12.6 C 0 km/h
27 11-09-2010 05:21:04 12.5 C 9.68 g/m*3 12.5 C 0 km/h
28 11-09-2010 05:33:04 12.6 C 9.74 g/m*3 12.6 C 0 km/h
29 11-09-2010 05:45:05 12.7 C 9.91 g/m*3 12.7 C 0 km/h
30 11-09-2010 05:57:05 12.8 C 9.97 g/m*3 12.8 C 0 km/h
31 11-09-2010 06:09:05 13 C 10.09 g/m*3 13 C 0 km/h
32 11-09-2010 06:21:05 13.1 C 10.16 g/m*3 13.1 C 0 km/h
33 11-09-2010 06:33:05 12.8 C 9.97 g/m*3 12.8 C 0 km/h
34 11-09-2010 06:45:05 12.5 C 9.78 g/m*3 12.5 C 0 km/h
35 11-09-2010 06:57:05 12.3 C 9.56 g/m*3 12.3 C 0 km/h
36 11-09-2010 07:09:05 12.1 C 9.44 g/m*3 12.1 C 0 km/h
37 11-09-2010 07:21:05 12.1 C 9.44 g/m*3 12.1 C 0 km/h
38 11-09-2010 07:33:05 12.1 C 9.54 g/m*3 12.1 C 0 km/h
39 11-09-2010 07:45:05 12.1 C 9.54 g/m*3 12.1 C 0 km/h
40 11-09-2010 07:57:05 12.4 C 9.72 g/m*3 12.4 C 0 km/h
41 11-09-2010 08:09:05 12.7 C 10.02 g/m*3 12.7 C 0 km/h
42 11-09-2010 08:21:03 13 C 10.21 g/m*3 13 C 0 km/h
43 11-09-2010 08:33:02 13 C 10.21 g/m*3 13 C 0 km/h
44 11-09-2010 08:45:02 13.1 C 10.27 g/m*3 13.1 C 0 km/h
45 11-09-2010 08:57:02 13.4 C 10.46 g/m*3 13.4 C 0 km/h
46 11-09-2010 09:09:02 13.4 C 10.35 g/m*3 13.4 C 0 km/h
47 11-09-2010 09:21:02 13.5 C 10.41 g/m*3 13.5 C 0 km/h
48 11-09-2010 09:33:02 13.7 C 10.54 g/m*3 13.7 C 0 km/h
49 11-09-2010 09:45:01 13.9 C 10.67 g/m*3 13.9 C 0 km/h
50 11-09-2010 09:57:01 14.3 C 10.81 g/m*3 14.3 C 0 km/h
Sensor: Nr:Datum:Temp:Abs-Feuchte:Windchill:Wind:
Aussen-T/F 51 11-09-2010 10:09:02 14.7 C 11.08 g/m*3 14.7 C 0 km/h
52 11-09-2010 10:21:01 15 C 11.03 g/m*3 15 C 0 km/h
53 11-09-2010 10:33:01 15.6 C 11.3 g/m*3 15.6 C 0 km/h
54 11-09-2010 10:45:01 16.2 C 11.45 g/m*3 16.2 C 0 km/h
55 11-09-2010 10:57:01 16.8 C 11.72 g/m*3 16.8 C 0 km/h
56 11-09-2010 11:09:01 17.1 C 11.5 g/m*3 17.1 C 0 km/h
57 11-09-2010 11:21:02 17.5 C 11.18 g/m*3 17.5 C 0 km/h
58 11-09-2010 11:33:01 18.2 C 11.35 g/m*3 18.2 C 0 km/h
59 11-09-2010 11:45:03 19.1 C 11.31 g/m*3 19.1 C 0 km/h
60 11-09-2010 11:57:03 19.3 C 11.44 g/m*3 19.3 C 0 km/h
61 11-09-2010 12:09:02 19.2 C 9.89 g/m*3 19.2 C 0 km/h
62 11-09-2010 12:21:02 19.6 C 9.96 g/m*3 19.6 C 0 km/h
63 11-09-2010 12:33:02 19.9 C 9.45 g/m*3 19.9 C 0 km/h
64 11-09-2010 12:45:02 20.2 C 9.27 g/m*3 20.2 C 0 km/h
65 11-09-2010 12:57:02 20.6 C 9.31 g/m*3 20.6 C 0 km/h
66 11-09-2010 13:09:02 20.9 C 9.11 g/m*3 20.9 C 0 km/h
67 11-09-2010 13:21:02 21.3 C 8.76 g/m*3 21.3 C 0 km/h
68 11-09-2010 13:33:01 21.7 C 8.97 g/m*3 21.7 C 0 km/h
69 11-09-2010 13:45:02 22.2 C 8.44 g/m*3 22.2 C 0 km/h
70 11-09-2010 13:57:03 22.7 C 8.69 g/m*3 22.7 C 0 km/h
71 11-09-2010 14:09:01 23.3 C 8.15 g/m*3 23.3 C 0 km/h
72 11-09-2010 14:21:01 23.9 C 8.44 g/m*3 23.9 C 0 km/h
73 11-09-2010 14:33:02 24.3 C 8.19 g/m*3 24.3 C 0 km/h
74 11-09-2010 14:45:02 24.5 C 7.83 g/m*3 24.5 C 0 km/h
75 11-09-2010 14:57:02 25 C 8.06 g/m*3 25 C 0 km/h
Sensor: Nr:Datum:Temp:Abs-Feuchte:Windchill:Wind:
Aussen-T/F 76 11-09-2010 15:09:02 25.6 C 8.09 g/m*3 25.6 C 0 km/h
77 11-09-2010 15:21:02 25.7 C 7.9 g/m*3 25.7 C 0 km/h
78 11-09-2010 15:33:02 25.6 C 8.57 g/m*3 25.6 C 0 km/h
79 11-09-2010 15:45:02 26.5 C 7.51 g/m*3 26.5 C 0 km/h
80 11-09-2010 15:57:02 26.8 C 7.13 g/m*3 26.8 C 0 km/h
81 11-09-2010 16:09:02 25.7 C 7.66 g/m*3 25.7 C 0 km/h
82 11-09-2010 16:21:02 25.3 C 9.13 g/m*3 25.3 C 0 km/h
83 11-09-2010 16:33:02 26.5 C 8.01 g/m*3 26.5 C 0 km/h
84 11-09-2010 16:45:02 26.4 C 7.72 g/m*3 26.4 C 0 km/h
85 11-09-2010 16:57:02 27.8 C 8.34 g/m*3 27.8 C 0 km/h
86 11-09-2010 17:09:02 28 C 7.61 g/m*3 28 C 0 km/h
87 11-09-2010 17:21:02 27.3 C 7.85 g/m*3 27.3 C 0 km/h
88 11-09-2010 17:33:02 27.5 C 8.47 g/m*3 27.5 C 0 km/h
89 11-09-2010 17:45:02 27.6 C 8.78 g/m*3 27.6 C 0 km/h
90 11-09-2010 17:57:02 27.7 C 8.83 g/m*3 27.7 C 0 km/h
91 11-09-2010 18:09:02 27.5 C 9.26 g/m*3 27.5 C 0 km/h
92 11-09-2010 18:21:02 26.8 C 9.16 g/m*3 26.8 C 0 km/h
93 11-09-2010 18:33:01 26.3 C 8.91 g/m*3 26.3 C 0 km/h
94 11-09-2010 18:45:02 25.3 C 9.36 g/m*3 25.3 C 0 km/h
95 11-09-2010 18:57:02 24.4 C 9.57 g/m*3 24.4 C 0 km/h
96 11-09-2010 19:09:01 23.7 C 9.63 g/m*3 23.7 C 0 km/h
97 11-09-2010 19:21:02 22.6 C 9.64 g/m*3 22.6 C 0 km/h
98 11-09-2010 19:33:02 21.6 C 10.05 g/m*3 21.6 C 0 km/h
99 11-09-2010 19:45:02 20.7 C 9.72 g/m*3 20.7 C 0 km/h
100 11-09-2010 19:57:02 20.2 C 9.44 g/m*3 20.2 C 0 km/h
Sensor: Nr:Datum:Temp:Abs-Feuchte:Windchill:Wind:
Aussen-T/F 101 11-09-2010 20:09:02 20 C 9.33 g/m*3 20 C 0 km/h
102 11-09-2010 20:21:02 19.5 C 9.4 g/m*3 19.5 C 0 km/h
103 11-09-2010 20:33:02 19.3 C 9.45 g/m*3 19.3 C 0 km/h
104 11-09-2010 20:45:01 19.1 C 9.67 g/m*3 19.1 C 0 km/h
105 11-09-2010 20:57:01 18.8 C 9.66 g/m*3 18.8 C 0 km/h
106 11-09-2010 21:09:02 18.6 C 9.71 g/m*3 18.6 C 0 km/h
107 11-09-2010 21:21:01 18.4 C 9.91 g/m*3 18.4 C 0 km/h
108 11-09-2010 21:33:01 18.2 C 10.1 g/m*3 18.2 C 0 km/h
109 11-09-2010 21:45:01 17.7 C 10.11 g/m*3 17.7 C 0 km/h
110 11-09-2010 21:57:01 17.6 C 10.2 g/m*3 17.6 C 0 km/h
111 11-09-2010 22:09:02 17.6 C 10.2 g/m*3 17.6 C 0 km/h
112 11-09-2010 22:21:01 17.4 C 10.23 g/m*3 17.4 C 0 km/h
113 11-09-2010 22:34:03 17.2 C 10.1 g/m*3 17.2 C 0 km/h
114 11-09-2010 22:46:03 16.9 C 10.36 g/m*3 16.9 C 0 km/h
115 11-09-2010 22:58:03 16.9 C 10.5 g/m*3 16.9 C 0 km/h
116 11-09-2010 23:10:03 17 C 10.42 g/m*3 17 C 0 km/h
117 11-09-2010 23:22:03 16.6 C 10.45 g/m*3 16.6 C 0 km/h
118 11-09-2010 23:34:03 16.5 C 10.39 g/m*3 16.5 C 0 km/h
119 11-09-2010 23:46:03 16.4 C 10.33 g/m*3 16.4 C 0 km/h
120 11-09-2010 23:58:03 16.3 C 10.41 g/m*3 16.3 C 0 km/h
121 12-09-2010 00:10:03 16.2 C 10.48 g/m*3 16.2 C 0 km/h
122 12-09-2010 00:22:03 16.2 C 10.48 g/m*3 16.2 C 0 km/h
123 12-09-2010 00:34:03 16.1 C 10.42 g/m*3 16.1 C 0 km/h
124 12-09-2010 00:46:03 16 C 10.35 g/m*3 16 C 0 km/h
125 12-09-2010 00:58:03 15.8 C 10.36 g/m*3 15.8 C 0 km/h
Sensor: Nr:Datum:Temp:Abs-Feuchte:Windchill:Wind:
Aussen-T/F 126 12-09-2010 01:10:03 15.6 C 10.37 g/m*3 15.6 C 0 km/h
127 12-09-2010 01:22:04 15.5 C 10.31 g/m*3 15.5 C 0 km/h
128 12-09-2010 01:34:04 15.2 C 10.25 g/m*3 15.2 C 0 km/h
129 12-09-2010 01:46:04 15.2 C 10.38 g/m*3 15.2 C 0 km/h
130 12-09-2010 01:58:04 15.2 C 10.38 g/m*3 15.2 C 0 km/h
131 12-09-2010 02:10:04 15 C 10.26 g/m*3 15 C 0 km/h
132 12-09-2010 02:22:04 15 C 10.39 g/m*3 15 C 0 km/h
133 12-09-2010 02:34:04 14.9 C 10.45 g/m*3 14.9 C 0 km/h
134 12-09-2010 02:46:04 14.8 C 10.51 g/m*3 14.8 C 0 km/h
135 12-09-2010 02:58:04 14.7 C 10.32 g/m*3 14.7 C 0 km/h
136 12-09-2010 03:10:04 14.7 C 10.32 g/m*3 14.7 C 0 km/h
137 12-09-2010 03:22:04 14.6 C 10.26 g/m*3 14.6 C 0 km/h
138 12-09-2010 03:34:04 14.4 C 10.14 g/m*3 14.4 C 0 km/h
139 12-09-2010 03:46:04 14.3 C 10.07 g/m*3 14.3 C 0 km/h
140 12-09-2010 03:58:04 14.3 C 10.2 g/m*3 14.3 C 0 km/h
141 12-09-2010 04:10:04 14.2 C 10.14 g/m*3 14.2 C 0 km/h
142 12-09-2010 04:22:04 14.1 C 10.07 g/m*3 14.1 C 0 km/h
143 12-09-2010 04:34:05 14.1 C 10.07 g/m*3 14.1 C 0 km/h
144 12-09-2010 04:46:05 14.1 C 10.07 g/m*3 14.1 C 0 km/h
145 12-09-2010 04:58:05 14 C 10.01 g/m*3 14 C 0 km/h
146 12-09-2010 05:10:05 13.9 C 10.07 g/m*3 13.9 C 0 km/h
147 12-09-2010 05:22:05 13.7 C 9.95 g/m*3 13.7 C 0 km/h
148 12-09-2010 05:34:05 13.8 C 10.01 g/m*3 13.8 C 0 km/h
149 12-09-2010 05:46:05 13.7 C 9.95 g/m*3 13.7 C 0 km/h
150 12-09-2010 05:58:05 13.7 C 9.95 g/m*3 13.7 C 0 km/h
Sensor: Nr:Datum:Temp:Abs-Feuchte:Windchill:Wind:
Aussen-T/F 151 12-09-2010 06:10:05 13.7 C 9.95 g/m*3 13.7 C 0 km/h
152 12-09-2010 06:22:05 13.5 C 9.94 g/m*3 13.5 C 0 km/h
153 12-09-2010 06:34:05 13.5 C 9.94 g/m*3 13.5 C 0 km/h
154 12-09-2010 06:46:05 13.5 C 9.94 g/m*3 13.5 C 0 km/h
155 12-09-2010 06:58:05 13.4 C 9.88 g/m*3 13.4 C 0 km/h
156 12-09-2010 07:10:05 13.5 C 9.94 g/m*3 13.5 C 0 km/h
157 12-09-2010 07:22:05 13.5 C 10.06 g/m*3 13.5 C 0 km/h
158 12-09-2010 07:34:05 13.6 C 10.12 g/m*3 13.6 C 0 km/h
159 12-09-2010 07:46:02 13.8 C 10.25 g/m*3 13.8 C 0 km/h
160 12-09-2010 07:58:02 14.1 C 10.32 g/m*3 14.1 C 0 km/h
161 12-09-2010 08:10:02 14.1 C 10.32 g/m*3 14.1 C 0 km/h
162 12-09-2010 08:22:01 14.4 C 10.38 g/m*3 14.4 C 0 km/h
163 12-09-2010 08:34:02 14.5 C 10.32 g/m*3 14.5 C 0 km/h
164 12-09-2010 08:46:02 14 C 10.13 g/m*3 14 C 0 km/h
165 12-09-2010 08:58:02 14.3 C 10.32 g/m*3 14.3 C 0 km/h
166 12-09-2010 09:10:02 14.8 C 10.64 g/m*3 14.8 C 0 km/h
167 12-09-2010 09:22:02 14.8 C 10.39 g/m*3 14.8 C 0 km/h
168 12-09-2010 09:34:02 14.8 C 10.51 g/m*3 14.8 C 0 km/h
169 12-09-2010 09:46:02 15 C 10.51 g/m*3 15 C 0 km/h
170 12-09-2010 09:58:02 14.8 C 10.51 g/m*3 14.8 C 0 km/h
171 12-09-2010 10:10:02 15.3 C 10.84 g/m*3 15.3 C 0 km/h
172 12-09-2010 10:22:03 15.9 C 11.1 g/m*3 15.9 C 0 km/h
173 12-09-2010 10:34:02 16.8 C 11.29 g/m*3 16.8 C 0 km/h
174 12-09-2010 10:46:02 18 C 11.37 g/m*3 18 C 0 km/h
175 12-09-2010 10:58:02 18.7 C 11.05 g/m*3 18.7 C 0 km/h
Sensor: Nr:Datum:Temp:Abs-Feuchte:Windchill:Wind:
Aussen-T/F 176 12-09-2010 11:10:02 19.5 C 10.41 g/m*3 19.5 C 0 km/h
177 12-09-2010 11:22:02 20.2 C 10.67 g/m*3 20.2 C 0 km/h
178 12-09-2010 11:34:02 20.1 C 10.6 g/m*3 20.1 C 0 km/h
179 12-09-2010 11:46:02 20 C 10.89 g/m*3 20 C 0 km/h
180 12-09-2010 11:58:02 20.3 C 10.9 g/m*3 20.3 C 0 km/h
181 12-09-2010 12:10:01 20.5 C 10.85 g/m*3 20.5 C 0 km/h
182 12-09-2010 12:22:02 20.9 C 11.11 g/m*3 20.9 C 0 km/h
183 12-09-2010 12:34:01 21.4 C 11.06 g/m*3 21.4 C 0 km/h
184 12-09-2010 12:46:01 22.4 C 10.33 g/m*3 22.4 C 0 km/h
185 12-09-2010 12:58:02 22.9 C 10.22 g/m*3 22.9 C 0 km/h
186 12-09-2010 13:10:01 23.1 C 10.34 g/m*3 23.1 C 0 km/h
187 12-09-2010 13:22:01 23.7 C 10.48 g/m*3 23.7 C 0 km/h
188 12-09-2010 13:34:02 24.3 C 9.74 g/m*3 24.3 C 0 km/h
189 12-09-2010 13:46:02 25 C 8.98 g/m*3 25 C 0 km/h
190 12-09-2010 13:58:02 25.9 C 9.44 g/m*3 25.9 C 0 km/h
191 12-09-2010 14:10:02 25.7 C 9.34 g/m*3 25.7 C 0 km/h
192 12-09-2010 14:22:01 25 C 8.06 g/m*3 25 C 0 km/h
193 12-09-2010 14:34:02 24.7 C 8.15 g/m*3 24.7 C 0 km/h
194 12-09-2010 14:46:02 23.1 C 9.72 g/m*3 23.1 C 0 km/h
195 12-09-2010 14:58:02 20.8 C 10.14 g/m*3 20.8 C 0 km/h
196 12-09-2010 15:10:02 19.5 C 9.23 g/m*3 19.5 C 0 km/h
197 12-09-2010 15:22:02 19.1 C 8.69 g/m*3 19.1 C 0 km/h
198 12-09-2010 15:34:02 19.4 C 8.84 g/m*3 19.4 C 0 km/h
199 12-09-2010 15:46:02 19.4 C 8.84 g/m*3 19.4 C 0 km/h
200 12-09-2010 15:58:02 19.2 C 8.74 g/m*3 19.2 C 0 km/h
Sensor: Nr:Datum:Temp:Abs-Feuchte:Windchill:Wind:
Aussen-T/F 201 12-09-2010 16:10:02 17.9 C 8.86 g/m*3 17.9 C 0 km/h
202 12-09-2010 16:22:02 18.1 C 9.12 g/m*3 18.1 C 0 km/h
203 12-09-2010 16:34:02 18.1 C 9.27 g/m*3 18.1 C 0 km/h
204 12-09-2010 16:46:02 17.6 C 9.3 g/m*3 17.6 C 0 km/h
205 12-09-2010 16:58:02 17.2 C 9.37 g/m*3 17.2 C 0 km/h
206 12-09-2010 17:10:02 17.2 C 9.52 g/m*3 17.2 C 0 km/h
207 12-09-2010 17:22:02 16.6 C 9.04 g/m*3 16.6 C 0 km/h
208 12-09-2010 17:34:01 16.1 C 9.46 g/m*3 16.1 C 0 km/h
209 12-09-2010 17:46:02 15.6 C 9.97 g/m*3 15.6 C 0 km/h
210 12-09-2010 17:58:02 15.5 C 10.31 g/m*3 15.5 C 0 km/h
211 12-09-2010 18:10:01 15.2 C 10.25 g/m*3 15.2 C 0 km/h
212 12-09-2010 18:22:02 15.2 C 10.51 g/m*3 15.2 C 0 km/h
213 12-09-2010 18:34:02 14.9 C 10.58 g/m*3 14.9 C 0 km/h
214 12-09-2010 18:46:02 14.7 C 10.7 g/m*3 14.7 C 0 km/h
215 12-09-2010 18:58:02 14.6 C 10.89 g/m*3 14.6 C 0 km/h
216 12-09-2010 19:10:02 14.5 C 10.82 g/m*3 14.5 C 0 km/h
217 12-09-2010 19:22:02 14.3 C 10.69 g/m*3 14.3 C 0 km/h
218 12-09-2010 19:34:02 14.1 C 10.68 g/m*3 14.1 C 0 km/h
219 12-09-2010 19:46:01 14.3 C 10.93 g/m*3 14.3 C 0 km/h
220 12-09-2010 19:58:01 14.1 C 10.8 g/m*3 14.1 C 0 km/h
221 12-09-2010 20:10:02 14 C 10.74 g/m*3 14 C 0 km/h
222 12-09-2010 20:22:01 13.9 C 10.79 g/m*3 13.9 C 0 km/h
223 12-09-2010 20:34:01 13.8 C 10.84 g/m*3 13.8 C 0 km/h
224 12-09-2010 20:46:01 13.7 C 10.78 g/m*3 13.7 C 0 km/h
225 12-09-2010 20:58:01 13.7 C 10.89 g/m*3 13.7 C 0 km/h
Sensor: Nr:Datum:Temp:Abs-Feuchte:Windchill:Wind:
Aussen-T/F 226 12-09-2010 21:10:02 13.6 C 10.83 g/m*3 13.6 C 0 km/h
227 12-09-2010 21:22:01 13.7 C 10.89 g/m*3 13.7 C 0 km/h
228 12-09-2010 21:34:01 13.7 C 10.89 g/m*3 13.7 C 0 km/h
229 12-09-2010 21:46:01 13.9 C 11.15 g/m*3 13.9 C 0 km/h
230 12-09-2010 21:58:01 14 C 11.1 g/m*3 14 C 0 km/h
231 12-09-2010 22:10:02 13.9 C 11.15 g/m*3 13.9 C 0 km/h
232 12-09-2010 22:22:01 13.9 C 11.15 g/m*3 13.9 C 0 km/h
233 12-09-2010 22:34:02 13.8 C 11.08 g/m*3 13.8 C 0 km/h
234 12-09-2010 22:46:02 13.7 C 11.01 g/m*3 13.7 C 0 km/h
235 12-09-2010 22:58:02 13.6 C 10.95 g/m*3 13.6 C 0 km/h
236 12-09-2010 23:10:01 13.5 C 10.88 g/m*3 13.5 C 0 km/h
237 12-09-2010 23:22:02 13.5 C 10.88 g/m*3 13.5 C 0 km/h
238 12-09-2010 23:34:02 13.5 C 10.88 g/m*3 13.5 C 0 km/h
239 12-09-2010 23:46:02 13.7 C 11.01 g/m*3 13.7 C 0 km/h
240 12-09-2010 23:58:02 13.7 C 11.01 g/m*3 13.7 C 0 km/h

Legende:
   Min
   Max


Maximal/Minimal-Werte vom 11.09.2010 - 12.09.2010

Sensor Min Max Avg
Temp
(Aussen-T/F)
12.1 °C
11-09-2010  07:09:05
28 °C
11-09-2010  17:09:02
17.18 °C
Abs-Feuchte
(Aussen-T/F)
7.13 g/m*3
11-09-2010  15:57:02
11.72 g/m*3
11-09-2010  10:57:01
10 g/m*3
Windchill
(Aussen-T/F)
12.1 C
11-09-2010  07:09:05
28 C
11-09-2010  17:09:02
17.1 C

Die Daten stammen von einer Davis Vantage Pro 2 Wetter-Station und werden unter Linux mit der Software wview2wettercgi und aufbereitet. Alle Angaben erfolgen ohne Gewähr für ihre Vollständigkeit oder Richtigkeit.
Kontakt: Rainer Krienke krienke@uni-koblenz.de . Meine Webseiten an der Uni Koblenz oder privat.
Version: $Revision: 0.78 $